Time;durP1;ratioP1;P1;durP2;ratioP2;P2;SDS_P1;SDS_P2;PMS_P1;PMS_P2;Temp;Humidity;BMP_temperature;BMP_pressure;BME280_temperature;BME280_humidity;BME280_pressure;Samples;Min_cycle;Max_cycle;Signal;HPM_P1;HPM_P2
2024/04/20 00:00:11;;;;;;;1.85;1.30;;;7.60;99.90;;;;;;5482298;26;20017;-69
2024/04/20 00:02:37;;;;;;;1.52;1.17;;;7.60;99.90;;;;;;5481776;26;19995;-69
2024/04/20 00:05:03;;;;;;;1.90;1.50;;;7.60;99.90;;;;;;5443839;26;20002;-67
2024/04/20 00:07:28;;;;;;;2.70;1.90;;;7.50;99.90;;;;;;5445342;26;20008;-69
2024/04/20 00:09:56;;;;;;;1.75;1.60;;;7.40;99.90;;;;;;5479444;26;20618;-68
2024/04/20 00:12:22;;;;;;;2.97;1.88;;;7.60;99.90;;;;;;5483599;26;20009;-68
2024/04/20 00:14:47;;;;;;;1.50;1.40;;;7.60;99.90;;;;;;5471098;26;20010;-70
2024/04/20 00:17:13;;;;;;;2.05;1.33;;;7.50;99.90;;;;;;5454485;26;20074;-68
2024/04/20 00:19:39;;;;;;;4.00;1.88;;;7.60;99.90;;;;;;5461945;26;20313;-69
2024/04/20 00:22:05;;;;;;;2.53;2.00;;;7.60;99.90;;;;;;5484794;26;20515;-69
2024/04/20 00:24:31;;;;;;;2.70;2.00;;;7.60;99.90;;;;;;5487359;26;20086;-67
2024/04/20 00:26:57;;;;;;;2.10;1.50;;;7.60;99.90;;;;;;5452372;26;19997;-69
2024/04/20 00:29:23;;;;;;;3.45;1.80;;;7.50;99.90;;;;;;5474318;26;20451;-67
2024/04/20 00:31:48;;;;;;;1.67;1.58;;;7.50;99.90;;;;;;5476270;26;20402;-68
2024/04/20 00:34:14;;;;;;;4.28;1.80;;;7.50;99.90;;;;;;5440377;26;20056;-69
2024/04/20 00:36:40;;;;;;;3.67;2.03;;;7.50;99.90;;;;;;5491131;25;19997;-68
2024/04/20 00:39:05;;;;;;;3.65;1.73;;;7.50;99.90;;;;;;5482954;26;20016;-68
2024/04/20 00:41:31;;;;;;;2.80;1.70;;;7.40;99.90;;;;;;5517863;26;20752;-68
2024/04/20 00:43:57;;;;;;;2.45;1.75;;;7.40;99.90;;;;;;5512129;25;20002;-69
2024/04/20 00:46:24;;;;;;;2.40;1.83;;;7.50;99.90;;;;;;5514357;25;20473;-67
2024/04/20 00:48:51;;;;;;;2.78;2.03;;;7.40;99.90;;;;;;5512679;25;19997;-69
2024/04/20 00:51:17;;;;;;;4.60;2.08;;;7.40;99.90;;;;;;5498531;26;20009;-70
2024/04/20 00:53:46;;;;;;;3.05;1.80;;;7.30;99.90;;;;;;5506500;26;19994;-69
2024/04/20 00:56:13;;;;;;;2.65;1.98;;;7.40;99.90;;;;;;5504604;26;20011;-69
2024/04/20 00:58:38;;;;;;;5.38;2.15;;;7.30;99.90;;;;;;5514985;26;20386;-69
2024/04/20 01:01:04;;;;;;;1.92;1.73;;;7.30;99.90;;;;;;5513770;25;20070;-69
2024/04/20 01:03:30;;;;;;;3.38;2.30;;;7.30;99.90;;;;;;5508088;26;20413;-68
2024/04/20 01:05:58;;;;;;;3.35;2.00;;;7.30;99.90;;;;;;5506991;26;20001;-69
2024/04/20 01:08:24;;;;;;;3.65;2.22;;;7.30;99.90;;;;;;5510887;26;20001;-69
2024/04/20 01:10:50;;;;;;;3.88;2.63;;;7.20;99.90;;;;;;5483778;26;20559;-69
2024/04/20 01:13:23;;;;;;;5.38;2.28;;;7.30;99.90;;;;;;5515807;25;19997;-70
2024/04/20 01:15:48;;;;;;;3.17;2.28;;;7.30;99.90;;;;;;5506356;26;19989;-69
2024/04/20 01:18:14;;;;;;;5.68;2.22;;;7.20;99.90;;;;;;5515559;26;20073;-69
2024/04/20 01:20:39;;;;;;;3.50;2.17;;;7.20;99.90;;;;;;5510834;25;21272;-69
2024/04/20 01:23:05;;;;;;;3.40;2.38;;;7.20;99.90;;;;;;5515647;26;20073;-69
2024/04/20 01:25:32;;;;;;;3.75;2.35;;;7.20;99.90;;;;;;5512252;26;20001;-69
2024/04/20 01:27:58;;;;;;;6.03;2.22;;;7.20;99.90;;;;;;5512408;26;20575;-69
2024/04/20 01:30:24;;;;;;;2.90;2.28;;;7.20;99.90;;;;;;5505919;25;20001;-69
2024/04/20 01:32:49;;;;;;;7.97;2.42;;;7.20;99.90;;;;;;5511501;25;19998;-68
2024/04/20 01:35:15;;;;;;;4.60;2.33;;;7.20;99.90;;;;;;5475028;26;20008;-69
2024/04/20 01:37:40;;;;;;;6.22;2.55;;;7.20;99.90;;;;;;5505624;26;20042;-68
2024/04/20 01:40:06;;;;;;;3.78;2.00;;;7.20;99.90;;;;;;5512403;26;19993;-69
2024/04/20 01:42:32;;;;;;;6.47;2.20;;;7.20;99.90;;;;;;5515298;26;19993;-69
2024/04/20 01:44:58;;;;;;;6.53;2.58;;;7.20;99.90;;;;;;5507140;26;20070;-68
2024/04/20 01:47:28;;;;;;;3.65;1.98;;;7.10;99.90;;;;;;5509324;26;19994;-68
2024/04/20 01:49:54;;;;;;;4.70;2.50;;;7.10;99.90;;;;;;5513138;26;20006;-68
2024/04/20 01:52:20;;;;;;;4.90;2.28;;;7.10;99.90;;;;;;5505056;26;19998;-69
2024/04/20 01:54:46;;;;;;;5.93;1.73;;;7.10;99.90;;;;;;5495402;26;20011;-69
2024/04/20 01:57:12;;;;;;;3.67;1.92;;;7.10;99.90;;;;;;5502940;25;20012;-70
2024/04/20 01:59:37;;;;;;;10.90;2.10;;;7.10;99.90;;;;;;5501604;26;20408;-67
2024/04/20 02:02:03;;;;;;;8.13;2.25;;;7.10;99.90;;;;;;5510555;25;20058;-68
2024/04/20 02:04:29;;;;;;;2.88;1.70;;;7.10;99.90;;;;;;5512062;26;20543;-68
2024/04/20 02:06:55;;;;;;;2.97;1.83;;;7.10;99.90;;;;;;5512710;25;20062;-69
2024/04/20 02:09:21;;;;;;;5.32;1.67;;;7.00;99.90;;;;;;5510583;26;20012;-67
2024/04/20 02:11:46;;;;;;;4.15;1.70;;;7.00;99.90;;;;;;5510848;25;20001;-68
2024/04/20 02:14:12;;;;;;;2.40;1.65;;;7.00;99.90;;;;;;5509685;26;20012;-68
2024/04/20 02:16:38;;;;;;;2.40;1.63;;;6.90;99.90;;;;;;5514499;26;20015;-68
2024/04/20 02:19:03;;;;;;;8.15;2.20;;;6.90;99.90;;;;;;5483741;26;19997;-67
2024/04/20 02:21:29;;;;;;;2.70;1.83;;;6.90;99.90;;;;;;5510133;25;20703;-68
2024/04/20 02:23:54;;;;;;;2.35;1.60;;;6.90;99.90;;;;;;5506123;25;20020;-68
2024/04/20 02:26:20;;;;;;;4.72;2.13;;;6.90;99.90;;;;;;5507266;26;19994;-68
2024/04/20 02:28:46;;;;;;;2.80;1.75;;;6.90;99.90;;;;;;5516183;26;20021;-69
2024/04/20 02:31:11;;;;;;;2.30;1.60;;;6.90;99.90;;;;;;5501113;26;19993;-68
2024/04/20 02:33:39;;;;;;;4.05;1.85;;;6.90;99.90;;;;;;5480322;26;20002;-68
2024/04/20 02:36:05;;;;;;;4.53;1.75;;;6.90;99.90;;;;;;5512831;26;20767;-68
2024/04/20 02:38:30;;;;;;;4.57;1.70;;;6.90;99.90;;;;;;5511762;26;20005;-69
2024/04/20 02:40:56;;;;;;;3.33;1.77;;;6.80;99.90;;;;;;5514731;26;19994;-68
2024/04/20 02:43:21;;;;;;;2.47;1.92;;;6.90;99.90;;;;;;5510726;25;20042;-67
2024/04/20 02:45:48;;;;;;;3.60;1.80;;;6.80;99.90;;;;;;5509386;26;20331;-70
2024/04/20 02:48:13;;;;;;;7.15;1.75;;;6.90;99.90;;;;;;5487476;26;20069;-68
2024/04/20 02:50:39;;;;;;;2.90;1.80;;;6.90;99.90;;;;;;5488955;26;20034;-67
2024/04/20 02:53:05;;;;;;;5.93;1.80;;;6.90;99.90;;;;;;5477596;26;20001;-70
2024/04/20 02:55:30;;;;;;;3.58;1.88;;;6.90;99.90;;;;;;5511400;25;20831;-68
2024/04/20 02:57:56;;;;;;;2.75;1.77;;;6.90;99.90;;;;;;5501840;25;20012;-69
2024/04/20 03:00:21;;;;;;;4.70;1.95;;;6.90;99.90;;;;;;5503799;26;20005;-67
2024/04/20 03:02:47;;;;;;;5.78;1.75;;;6.80;99.90;;;;;;5510210;26;19993;-70
2024/04/20 03:05:13;;;;;;;4.63;1.85;;;6.80;99.90;;;;;;5505920;26;20008;-69
2024/04/20 03:07:38;;;;;;;2.92;1.90;;;6.80;99.90;;;;;;5502811;26;20505;-68
2024/04/20 03:10:04;;;;;;;4.55;2.28;;;6.80;99.90;;;;;;5512411;25;20074;-68
2024/04/20 03:12:30;;;;;;;5.28;2.08;;;6.70;99.90;;;;;;5503258;26;20006;-68
2024/04/20 03:14:56;;;;;;;5.13;2.22;;;6.80;99.90;;;;;;5503161;26;20012;-68
2024/04/20 03:17:21;;;;;;;5.07;2.00;;;6.70;99.90;;;;;;5501734;26;19998;-70
2024/04/20 03:19:47;;;;;;;4.65;2.33;;;6.70;99.90;;;;;;5510381;26;20494;-69
2024/04/20 03:22:13;;;;;;;3.05;1.70;;;6.70;99.90;;;;;;5502382;26;20034;-69
2024/04/20 03:24:39;;;;;;;2.83;1.77;;;6.80;99.90;;;;;;5503189;25;19993;-71
2024/04/20 03:27:05;;;;;;;7.45;1.95;;;6.70;99.90;;;;;;5469021;26;20615;-68
2024/04/20 03:29:31;;;;;;;3.15;1.73;;;6.70;99.90;;;;;;5512234;26;20011;-69
2024/04/20 03:31:56;;;;;;;2.88;1.70;;;6.70;99.90;;;;;;5497577;26;20009;-69
2024/04/20 03:34:22;;;;;;;2.35;1.52;;;6.70;99.90;;;;;;5474414;26;20041;-69
2024/04/20 03:36:47;;;;;;;3.00;1.67;;;6.70;99.90;;;;;;5474459;26;19994;-69
2024/04/20 03:39:15;;;;;;;2.97;1.60;;;6.70;99.90;;;;;;5471048;26;19994;-69
2024/04/20 03:41:43;;;;;;;6.80;2.00;;;6.70;99.90;;;;;;5504300;26;20026;-67
2024/04/20 03:44:08;;;;;;;3.83;1.73;;;6.70;99.90;;;;;;5501081;26;20049;-68
2024/04/20 03:46:34;;;;;;;9.13;2.15;;;6.60;99.90;;;;;;5480245;26;19997;-69
2024/04/20 03:48:59;;;;;;;3.28;1.55;;;6.60;99.90;;;;;;5493678;26;20001;-70
2024/04/20 03:51:25;;;;;;;3.20;1.95;;;6.50;99.90;;;;;;5480928;26;20020;-68
2024/04/20 03:53:51;;;;;;;3.42;1.73;;;6.50;99.90;;;;;;5505866;25;20024;-69
2024/04/20 03:56:16;;;;;;;2.60;1.88;;;6.50;99.90;;;;;;5479906;26;20092;-68
2024/04/20 03:58:42;;;;;;;2.55;1.60;;;6.40;99.90;;;;;;5511166;26;20104;-69
2024/04/20 04:01:08;;;;;;;1.40;1.30;;;6.40;99.90;;;;;;5479846;26;19994;-68
2024/04/20 04:03:33;;;;;;;3.42;1.65;;;6.40;99.90;;;;;;5512715;26;20012;-68
2024/04/20 04:05:59;;;;;;;6.85;1.50;;;6.40;99.90;;;;;;5502552;26;20545;-69
2024/04/20 04:08:25;;;;;;;3.92;1.40;;;6.40;99.90;;;;;;5509863;26;20014;-69
2024/04/20 04:10:52;;;;;;;2.72;1.45;;;6.40;99.90;;;;;;5511783;26;19997;-69
2024/04/20 04:13:17;;;;;;;2.33;1.25;;;6.40;99.90;;;;;;5498771;26;20075;-65
2024/04/20 04:15:43;;;;;;;2.25;1.42;;;6.40;99.90;;;;;;5504595;25;20033;-65
2024/04/20 04:18:10;;;;;;;2.63;1.33;;;6.40;99.90;;;;;;5507382;26;20013;-65
2024/04/20 04:20:36;;;;;;;3.20;1.50;;;6.30;99.90;;;;;;5509693;26;20562;-65
2024/04/20 04:23:02;;;;;;;2.38;1.50;;;6.20;99.90;;;;;;5504118;26;19993;-65
2024/04/20 04:25:32;;;;;;;2.63;1.70;;;6.40;99.90;;;;;;5506975;25;20009;-65
2024/04/20 04:27:58;;;;;;;5.15;2.15;;;6.40;99.90;;;;;;5509321;25;19994;-65
2024/04/20 04:30:24;;;;;;;2.65;1.80;;;6.50;99.90;;;;;;5505134;26;19998;-65
2024/04/20 04:32:50;;;;;;;3.40;1.70;;;6.40;99.90;;;;;;5505563;26;20012;-65
2024/04/20 04:35:15;;;;;;;3.75;2.33;;;6.40;99.90;;;;;;5504587;25;20010;-65
2024/04/20 04:37:41;;;;;;;2.72;1.85;;;6.40;99.90;;;;;;5480839;26;19998;-65
2024/04/20 04:40:07;;;;;;;2.70;1.90;;;6.40;99.90;;;;;;5514149;26;19997;-65
2024/04/20 04:42:33;;;;;;;3.60;2.13;;;6.40;99.90;;;;;;5506706;25;20005;-65
2024/04/20 04:44:59;;;;;;;3.08;2.03;;;6.40;99.90;;;;;;5507025;25;20077;-65
2024/04/20 04:47:25;;;;;;;3.40;1.35;;;6.40;99.90;;;;;;5511784;26;20466;-65
2024/04/20 04:49:50;;;;;;;2.13;1.33;;;6.40;99.90;;;;;;5494637;26;20012;-65
2024/04/20 04:52:17;;;;;;;3.05;1.67;;;6.40;99.90;;;;;;5503709;25;20640;-65
2024/04/20 04:54:43;;;;;;;3.85;2.05;;;6.40;99.90;;;;;;5498749;26;20057;-65
2024/04/20 04:57:09;;;;;;;3.47;1.70;;;6.40;99.90;;;;;;5498791;25;20002;-65
2024/04/20 04:59:35;;;;;;;3.67;1.50;;;6.40;99.90;;;;;;5512027;25;19998;-65
2024/04/20 05:02:00;;;;;;;4.45;1.13;;;6.40;99.90;;;;;;5514909;26;20005;-65
2024/04/20 05:04:27;;;;;;;2.97;1.52;;;6.40;99.90;;;;;;5477853;25;20041;-65
2024/04/20 05:06:52;;;;;;;3.08;1.52;;;6.40;99.90;;;;;;5511556;26;20046;-65
2024/04/20 05:09:18;;;;;;;4.55;1.33;;;6.40;99.90;;;;;;5481094;26;19994;-65
2024/04/20 05:11:44;;;;;;;2.10;1.38;;;6.40;99.90;;;;;;5506136;26;20004;-65
2024/04/20 05:14:10;;;;;;;3.53;1.60;;;6.40;99.90;;;;;;5504437;26;20526;-65
2024/04/20 05:16:36;;;;;;;4.75;1.83;;;6.30;99.90;;;;;;5507178;26;19997;-65
2024/04/20 05:19:03;;;;;;;3.30;1.30;;;6.30;99.90;;;;;;5501551;26;20021;-65
2024/04/20 05:21:29;;;;;;;4.25;1.90;;;6.30;99.90;;;;;;5496996;26;19994;-65
2024/04/20 05:23:55;;;;;;;3.60;1.33;;;6.20;99.90;;;;;;5493468;26;20049;-65
2024/04/20 05:26:23;;;;;;;3.22;1.30;;;6.20;99.90;;;;;;5505625;25;20474;-65
2024/04/20 05:28:49;;;;;;;2.50;1.55;;;6.20;99.90;;;;;;5504578;26;20149;-65
2024/04/20 05:31:15;;;;;;;5.13;1.63;;;6.20;99.90;;;;;;5499863;26;20002;-65
2024/04/20 05:33:41;;;;;;;2.80;1.33;;;6.10;99.90;;;;;;5510454;26;20467;-65
2024/04/20 05:36:07;;;;;;;2.97;1.17;;;6.10;99.90;;;;;;5514042;25;19994;-65
2024/04/20 05:38:32;;;;;;;2.83;1.30;;;6.20;99.90;;;;;;5514263;26;20008;-65
2024/04/20 05:41:05;;;;;;;5.15;1.42;;;6.10;99.90;;;;;;5505643;26;20074;-65
2024/04/20 05:43:31;;;;;;;1.63;1.00;;;6.10;99.90;;;;;;5496708;26;20784;-65
2024/04/20 05:45:57;;;;;;;1.83;1.00;;;6.10;99.90;;;;;;5507246;26;20020;-65
2024/04/20 05:48:23;;;;;;;2.10;1.30;;;6.10;99.90;;;;;;5498026;26;20002;-65
2024/04/20 05:50:49;;;;;;;1.55;1.20;;;6.10;99.90;;;;;;5505205;25;20464;-65
2024/04/20 05:53:14;;;;;;;2.05;1.13;;;6.10;99.90;;;;;;5507967;26;20046;-65
2024/04/20 05:55:43;;;;;;;1.30;1.10;;;6.10;99.90;;;;;;5497485;25;20749;-66
2024/04/20 05:58:09;;;;;;;2.58;1.08;;;6.10;99.90;;;;;;5504112;26;20525;-66
2024/04/20 06:00:34;;;;;;;3.00;1.40;;;6.10;99.90;;;;;;5509019;25;20006;-66
2024/04/20 06:03:01;;;;;;;2.90;1.55;;;6.10;99.90;;;;;;5504020;26;20007;-66
2024/04/20 06:05:26;;;;;;;5.40;1.30;;;6.10;99.90;;;;;;5508758;25;20064;-65
2024/04/20 06:07:52;;;;;;;3.42;1.15;;;6.20;99.90;;;;;;5512975;26;20434;-66
2024/04/20 06:10:17;;;;;;;5.53;1.70;;;6.20;99.90;;;;;;5503590;26;20025;-66
2024/04/20 06:12:43;;;;;;;5.40;1.40;;;6.20;99.90;;;;;;5473516;26;20014;-66
2024/04/20 06:15:08;;;;;;;2.42;1.40;;;6.20;99.90;;;;;;5503186;26;20001;-66
2024/04/20 06:17:34;;;;;;;1.65;1.15;;;6.20;99.90;;;;;;5500067;26;20001;-66
2024/04/20 06:20:00;;;;;;;4.40;1.35;;;6.30;99.90;;;;;;5504107;25;20025;-66
2024/04/20 06:22:25;;;;;;;5.13;1.48;;;6.30;99.90;;;;;;5474838;25;19994;-66
2024/04/20 06:24:54;;;;;;;2.63;1.63;;;6.40;99.90;;;;;;5501056;25;20757;-66
2024/04/20 06:27:23;;;;;;;4.30;1.42;;;6.40;99.90;;;;;;5505640;25;20031;-65
2024/04/20 06:29:49;;;;;;;4.18;1.63;;;6.40;99.90;;;;;;5468244;26;20007;-65
2024/04/20 06:32:16;;;;;;;5.88;1.95;;;6.40;99.90;;;;;;5505234;26;20010;-66
2024/04/20 06:34:43;;;;;;;2.60;1.60;;;6.50;99.90;;;;;;5510449;26;20020;-66
2024/04/20 06:37:09;;;;;;;3.85;1.95;;;6.60;99.90;;;;;;5475041;26;20218;-65
2024/04/20 06:39:35;;;;;;;2.65;1.30;;;6.70;99.90;;;;;;5513716;26;20013;-66
2024/04/20 06:42:01;;;;;;;6.25;1.48;;;6.70;99.90;;;;;;5503773;25;20127;-66
2024/04/20 06:44:27;;;;;;;3.25;1.33;;;6.70;99.90;;;;;;5468300;25;20001;-65
2024/04/20 06:46:54;;;;;;;2.72;1.40;;;6.80;99.90;;;;;;5509822;26;19998;-66
2024/04/20 06:49:20;;;;;;;3.13;1.33;;;6.80;99.90;;;;;;5506599;26;20037;-66
2024/04/20 06:51:46;;;;;;;2.78;1.45;;;6.90;99.90;;;;;;5471853;26;20319;-66
2024/04/20 06:54:11;;;;;;;2.17;1.38;;;7.00;99.90;;;;;;5499813;25;20019;-66
2024/04/20 06:56:37;;;;;;;7.82;1.52;;;7.20;99.90;;;;;;5512622;25;19998;-66
2024/04/20 06:59:03;;;;;;;2.53;1.15;;;7.20;99.90;;;;;;5501872;26;19994;-65
2024/04/20 07:01:28;;;;;;;4.88;1.38;;;7.40;99.90;;;;;;5506949;25;20007;-65
2024/04/20 07:03:54;;;;;;;2.95;1.35;;;7.50;99.90;;;;;;5501447;25;20086;-66
2024/04/20 07:06:19;;;;;;;8.20;2.35;;;7.60;99.90;;;;;;5516240;26;20012;-66
2024/04/20 07:08:45;;;;;;;3.08;1.90;;;7.70;99.90;;;;;;5502280;26;20394;-66
2024/04/20 07:11:12;;;;;;;3.22;1.00;;;7.70;99.90;;;;;;5501813;26;20057;-66
2024/04/20 07:13:39;;;;;;;2.10;1.20;;;7.80;99.90;;;;;;5506152;25;20350;-66
2024/04/20 07:16:05;;;;;;;1.40;0.90;;;7.90;99.90;;;;;;5509876;26;20841;-65
2024/04/20 07:18:31;;;;;;;1.75;1.10;;;8.00;99.90;;;;;;5477818;26;20033;-66
2024/04/20 07:21:05;;;;;;;1.17;0.80;;;8.10;99.90;;;;;;5507228;26;20623;-65
2024/04/20 07:23:31;;;;;;;1.45;0.98;;;8.20;99.90;;;;;;5506910;25;20013;-66
2024/04/20 07:26:01;;;;;;;1.83;1.10;;;8.20;99.90;;;;;;5503349;25;20013;-66
2024/04/20 07:28:28;;;;;;;2.40;0.98;;;8.30;99.40;;;;;;5507340;25;20002;-66
2024/04/20 07:30:53;;;;;;;3.60;1.02;;;8.30;99.10;;;;;;5503950;26;20019;-66
2024/04/20 07:33:19;;;;;;;2.78;0.80;;;8.40;99.40;;;;;;5503172;25;19998;-66
2024/04/20 07:35:44;;;;;;;1.15;0.70;;;8.50;99.50;;;;;;5504480;26;20069;-66
2024/04/20 07:38:10;;;;;;;2.47;1.00;;;8.50;99.70;;;;;;5506185;25;20639;-66
2024/04/20 07:40:36;;;;;;;2.20;0.80;;;8.50;99.00;;;;;;5511002;25;20091;-66
2024/04/20 07:43:02;;;;;;;3.00;0.85;;;8.50;98.30;;;;;;5482850;26;19993;-63
2024/04/20 07:45:28;;;;;;;2.28;0.80;;;8.60;98.80;;;;;;5506197;26;20066;-66
2024/04/20 07:47:54;;;;;;;1.20;0.73;;;8.60;98.80;;;;;;5508463;25;20002;-66
2024/04/20 07:50:19;;;;;;;3.35;1.00;;;8.70;98.30;;;;;;5515967;26;20021;-66
2024/04/20 07:52:47;;;;;;;1.92;0.77;;;8.80;98.50;;;;;;5504690;26;20005;-66
2024/04/20 07:55:13;;;;;;;0.98;0.68;;;8.80;98.60;;;;;;5509301;25;19993;-66
2024/04/20 07:57:39;;;;;;;1.55;0.75;;;8.80;98.30;;;;;;5515604;26;19997;-66
2024/04/20 08:00:05;;;;;;;3.22;0.73;;;8.90;98.20;;;;;;5513561;26;19994;-66
2024/04/20 08:02:31;;;;;;;0.98;0.60;;;8.90;98.30;;;;;;5516528;25;19993;-66
2024/04/20 08:04:57;;;;;;;0.93;0.50;;;9.00;98.00;;;;;;5517223;26;20627;-66
2024/04/20 08:07:23;;;;;;;4.00;1.00;;;8.90;96.90;;;;;;5512262;26;20002;-66
2024/04/20 08:09:48;;;;;;;2.72;0.80;;;9.00;97.90;;;;;;5505954;25;20440;-66
2024/04/20 08:12:14;;;;;;;1.63;0.85;;;9.10;97.70;;;;;;5508289;26;19997;-66
2024/04/20 08:14:40;;;;;;;1.90;0.57;;;9.20;97.20;;;;;;5506838;26;20013;-66
2024/04/20 08:17:06;;;;;;;2.95;0.80;;;9.20;96.60;;;;;;5510003;25;20025;-66
2024/04/20 08:19:32;;;;;;;0.90;0.50;;;9.20;96.90;;;;;;5516229;26;20475;-66
2024/04/20 08:21:57;;;;;;;2.30;0.50;;;9.20;96.80;;;;;;5481467;26;20004;-66
2024/04/20 08:24:23;;;;;;;2.08;0.90;;;9.30;96.90;;;;;;5517277;26;20701;-66
2024/04/20 08:26:49;;;;;;;0.80;0.70;;;9.20;95.70;;;;;;5501544;26;20008;-66
2024/04/20 08:29:14;;;;;;;1.38;0.65;;;9.20;96.20;;;;;;5509685;26;20038;-66
2024/04/20 08:31:40;;;;;;;2.97;0.93;;;9.20;96.20;;;;;;5470999;26;19998;-66
2024/04/20 08:34:05;;;;;;;1.52;0.60;;;9.30;96.70;;;;;;5483244;26;20679;-66
2024/04/20 08:36:32;;;;;;;2.95;0.80;;;9.40;96.80;;;;;;5512197;26;20002;-66
2024/04/20 08:38:57;;;;;;;2.72;0.98;;;9.50;97.00;;;;;;5500337;26;19990;-66
2024/04/20 08:41:25;;;;;;;0.75;0.65;;;9.50;96.30;;;;;;5506371;25;20013;-66
2024/04/20 08:43:52;;;;;;;4.35;0.85;;;9.50;95.50;;;;;;5513874;25;20012;-66
2024/04/20 08:46:19;;;;;;;1.08;0.77;;;9.70;96.10;;;;;;5504530;26;20013;-66
2024/04/20 08:48:46;;;;;;;2.15;0.85;;;9.80;96.70;;;;;;5517982;25;19997;-66
2024/04/20 08:51:13;;;;;;;1.27;0.60;;;9.90;95.60;;;;;;5495418;26;20009;-66
2024/04/20 08:53:41;;;;;;;2.72;0.90;;;9.90;95.50;;;;;;5501476;26;19998;-66
2024/04/20 08:56:08;;;;;;;0.68;0.57;;;9.90;95.60;;;;;;5518236;26;20082;-66
2024/04/20 08:58:34;;;;;;;1.35;0.52;;;10.00;94.70;;;;;;5469778;26;19997;-66
2024/04/20 09:01:01;;;;;;;0.70;0.60;;;10.00;94.20;;;;;;5500711;26;20088;-66
2024/04/20 09:03:28;;;;;;;0.52;0.47;;;10.00;94.30;;;;;;5509920;26;20364;-66
2024/04/20 09:05:53;;;;;;;0.60;0.60;;;10.10;94.10;;;;;;5512131;25;20017;-66
2024/04/20 09:08:24;;;;;;;1.20;0.70;;;10.10;92.90;;;;;;5518155;26;20077;-66
2024/04/20 09:10:50;;;;;;;2.22;0.50;;;10.20;94.20;;;;;;5517463;26;20368;-66
2024/04/20 09:13:18;;;;;;;1.13;0.57;;;10.30;94.20;;;;;;5515692;26;20001;-66
2024/04/20 09:15:47;;;;;;;2.10;0.55;;;10.30;91.80;;;;;;5509136;26;19998;-66
2024/04/20 09:18:14;;;;;;;0.55;0.55;;;10.40;92.00;;;;;;5514123;26;20005;-66
2024/04/20 09:20:41;;;;;;;1.50;0.50;;;10.50;93.10;;;;;;5514460;26;20014;-66
2024/04/20 09:23:08;;;;;;;0.85;0.57;;;10.70;92.90;;;;;;5499706;26;20597;-66
2024/04/20 09:25:37;;;;;;;1.13;0.60;;;10.80;93.00;;;;;;5481214;26;20073;-66
2024/04/20 09:28:05;;;;;;;2.85;0.60;;;10.70;92.10;;;;;;5515423;26;19993;-66
2024/04/20 09:30:31;;;;;;;1.30;0.50;;;10.70;91.70;;;;;;5484086;26;20058;-66
2024/04/20 09:32:57;;;;;;;3.25;0.70;;;10.80;92.30;;;;;;5478536;26;20049;-66
2024/04/20 09:35:24;;;;;;;0.70;0.40;;;10.80;91.30;;;;;;5517075;26;20366;-66
2024/04/20 09:37:51;;;;;;;0.88;0.50;;;10.80;91.20;;;;;;5514496;25;20001;-66
2024/04/20 09:40:17;;;;;;;0.77;0.60;;;10.90;91.20;;;;;;5517399;26;20001;-66
2024/04/20 09:42:46;;;;;;;1.42;0.65;;;10.90;91.10;;;;;;5516528;25;20627;-66
2024/04/20 09:45:12;;;;;;;1.05;0.43;;;11.00;91.10;;;;;;5516963;25;19993;-66
2024/04/20 09:47:39;;;;;;;0.98;0.68;;;11.10;91.50;;;;;;5518943;26;20054;-66
2024/04/20 09:50:12;;;;;;;1.83;0.77;;;11.00;90.90;;;;;;5483924;26;20022;-66
2024/04/20 09:52:53;;;;;;;0.80;0.60;;;11.10;91.80;;;;;;5510694;26;20025;-66
2024/04/20 09:55:28;;;;;;;6.32;0.70;;;11.20;91.50;;;;;;5501812;25;19998;-66
2024/04/20 09:57:55;;;;;;;2.25;0.80;;;11.30;91.20;;;;;;5504817;26;20001;-66
2024/04/20 10:00:22;;;;;;;0.98;0.60;;;11.50;92.20;;;;;;5481302;26;20063;-66
2024/04/20 10:02:48;;;;;;;1.23;0.60;;;11.30;90.20;;;;;;5515761;26;20006;-66
2024/04/20 10:05:16;;;;;;;2.17;0.55;;;11.10;90.30;;;;;;5511569;25;20073;-66
2024/04/20 10:07:44;;;;;;;1.90;0.57;;;11.30;90.90;;;;;;5516666;25;19994;-66
2024/04/20 10:10:10;;;;;;;;;;;11.50;90.50;;;;;;5513592;26;20013;-66
2024/04/20 10:12:36;;;;;;;1.70;0.63;;;11.70;91.40;;;;;;5512951;26;19987;-66
2024/04/20 10:15:02;;;;;;;2.25;0.55;;;11.90;90.00;;;;;;5511001;25;20498;-66
2024/04/20 10:17:28;;;;;;;2.30;0.40;;;11.80;87.80;;;;;;5509456;26;19997;-66
2024/04/20 10:19:56;;;;;;;1.13;0.52;;;11.90;88.40;;;;;;5481456;26;20005;-66
2024/04/20 10:22:25;;;;;;;1.33;0.60;;;12.00;86.90;;;;;;5477946;26;19994;-66
2024/04/20 10:25:02;;;;;;;0.95;0.40;;;12.20;85.90;;;;;;5503713;25;20319;-66
2024/04/20 10:27:31;;;;;;;3.42;0.77;;;12.20;85.70;;;;;;5507582;26;20005;-66
2024/04/20 10:30:16;;;;;;;1.83;0.70;;;12.10;86.80;;;;;;5506864;26;20008;-66
2024/04/20 10:32:42;;;;;;;1.80;0.80;;;12.10;86.40;;;;;;5482052;25;20048;-66
2024/04/20 10:35:08;;;;;;;0.90;0.75;;;11.90;83.90;;;;;;5515116;26;20694;-66
2024/04/20 10:37:34;;;;;;;3.15;0.70;;;11.70;86.10;;;;;;5506439;25;20008;-67
2024/04/20 10:40:11;;;;;;;1.50;0.73;;;11.70;84.50;;;;;;5506726;26;20331;-66
2024/04/20 10:42:37;;;;;;;6.18;0.60;;;11.50;84.30;;;;;;5513636;25;20013;-66
2024/04/20 10:45:06;;;;;;;2.08;0.60;;;11.60;85.50;;;;;;5502504;25;20137;-66
2024/04/20 10:47:39;;;;;;;5.00;0.90;;;11.60;83.10;;;;;;5514351;26;19993;-66
2024/04/20 10:50:10;;;;;;;0.60;0.50;;;11.50;80.70;;;;;;5506406;26;19998;-66
2024/04/20 10:52:36;;;;;;;0.60;0.30;;;11.30;78.90;;;;;;5494439;25;20043;-66
2024/04/20 10:55:12;;;;;;;0.52;0.50;;;11.50;81.10;;;;;;5504833;25;20001;-66
2024/04/20 10:57:38;;;;;;;0.82;0.47;;;11.50;83.50;;;;;;5507792;26;20005;-66
2024/04/20 11:00:04;;;;;;;0.80;0.60;;;11.70;85.40;;;;;;5502849;25;20006;-66
2024/04/20 11:02:30;;;;;;;1.85;0.85;;;11.90;84.60;;;;;;5497922;26;20002;-66
2024/04/20 11:04:55;;;;;;;6.18;1.02;;;12.00;86.50;;;;;;5487332;26;20056;-66
2024/04/20 11:07:21;;;;;;;1.08;0.75;;;12.10;84.80;;;;;;5470310;26;19999;-66
2024/04/20 11:09:50;;;;;;;0.93;0.60;;;12.20;82.80;;;;;;5475280;26;20013;-66
2024/04/20 11:12:18;;;;;;;1.95;0.93;;;12.20;82.10;;;;;;5485776;26;20009;-66
2024/04/20 11:14:44;;;;;;;1.73;0.52;;;12.40;82.70;;;;;;5439391;26;20018;-66
2024/04/20 11:17:10;;;;;;;2.08;0.80;;;12.50;81.10;;;;;;5510573;26;20456;-66
2024/04/20 11:19:38;;;;;;;0.40;0.40;;;12.70;81.20;;;;;;5514170;26;20452;-66
2024/04/20 11:22:04;;;;;;;1.23;0.90;;;12.90;82.30;;;;;;5470047;26;20555;-67
2024/04/20 11:24:30;;;;;;;2.58;0.77;;;13.10;81.80;;;;;;5508422;25;20009;-67
2024/04/20 11:27:03;;;;;;;1.10;0.80;;;13.20;82.40;;;;;;5507502;26;19999;-66
2024/04/20 11:29:29;;;;;;;1.98;0.88;;;13.30;81.70;;;;;;5514365;26;20478;-67
2024/04/20 11:32:01;;;;;;;3.28;0.90;;;13.30;80.90;;;;;;5510320;26;20002;-67
2024/04/20 11:34:27;;;;;;;1.73;0.70;;;13.20;80.00;;;;;;5510415;26;20018;-67
2024/04/20 11:36:53;;;;;;;1.45;1.13;;;13.10;77.70;;;;;;5510845;26;19997;-66
2024/04/20 11:39:19;;;;;;;1.17;0.70;;;12.90;80.30;;;;;;5506056;26;20359;-66
2024/04/20 11:41:45;;;;;;;2.85;1.10;;;12.80;81.50;;;;;;5512921;26;19993;-66
2024/04/20 11:44:12;;;;;;;1.75;1.00;;;12.80;82.80;;;;;;5513221;26;20069;-66
2024/04/20 11:46:41;;;;;;;0.75;0.75;;;12.70;82.60;;;;;;5480354;26;20010;-66
2024/04/20 11:49:16;;;;;;;1.20;0.80;;;12.60;81.50;;;;;;5509812;26;19997;-67
2024/04/20 11:54:24;;;;;;;3.15;0.95;;;12.30;83.20;;;;;;5513755;26;22109;-66
2024/04/20 11:56:52;;;;;;;1.30;0.70;;;12.10;82.00;;;;;;5516675;26;19994;-66
2024/04/20 11:59:18;;;;;;;2.22;0.93;;;12.00;80.20;;;;;;5515419;26;20009;-67
2024/04/20 12:01:44;;;;;;;1.13;0.80;;;11.70;79.20;;;;;;5513170;26;20037;-67
2024/04/20 12:04:11;;;;;;;1.08;0.73;;;11.70;79.80;;;;;;5503004;26;20009;-66
2024/04/20 12:06:38;;;;;;;2.63;0.95;;;11.80;80.80;;;;;;5510633;26;20012;-67
2024/04/20 12:09:04;;;;;;;1.85;1.02;;;12.00;82.10;;;;;;5507533;26;20411;-66
2024/04/20 12:11:29;;;;;;;0.90;0.80;;;12.30;83.50;;;;;;5508116;26;20034;-67
2024/04/20 12:13:55;;;;;;;0.77;0.70;;;12.30;81.50;;;;;;5475438;26;19998;-66
2024/04/20 12:16:21;;;;;;;0.93;0.80;;;12.40;82.10;;;;;;5508669;26;20469;-66
2024/04/20 12:18:46;;;;;;;1.67;0.77;;;12.50;82.30;;;;;;5504229;26;20001;-67
2024/04/20 12:21:13;;;;;;;5.22;1.10;;;12.20;79.40;;;;;;5513580;26;20077;-66
2024/04/20 12:23:40;;;;;;;1.92;0.80;;;12.20;81.70;;;;;;5517133;26;20073;-66
2024/04/20 12:26:07;;;;;;;1.83;0.90;;;12.30;82.20;;;;;;5514970;26;20490;-66
2024/04/20 12:28:32;;;;;;;1.23;0.80;;;12.40;82.60;;;;;;5473767;26;20404;-66
2024/04/20 12:31:00;;;;;;;0.70;0.60;;;12.60;80.50;;;;;;5508429;26;20001;-66
2024/04/20 12:33:29;;;;;;;4.32;1.20;;;12.60;81.00;;;;;;5517717;26;20547;-66
2024/04/20 12:35:54;;;;;;;1.55;0.70;;;12.70;81.00;;;;;;5515225;26;20008;-66
2024/04/20 12:38:22;;;;;;;2.17;0.70;;;13.00;81.60;;;;;;5514023;26;20363;-66
2024/04/20 12:40:48;;;;;;;1.13;0.60;;;13.10;80.50;;;;;;5511499;25;20467;-66
2024/04/20 12:43:14;;;;;;;3.70;0.90;;;13.20;80.50;;;;;;5515374;26;20043;-66
2024/04/20 12:45:40;;;;;;;1.13;0.52;;;13.00;78.30;;;;;;5510129;26;20002;-66
2024/04/20 12:48:06;;;;;;;2.55;0.57;;;12.90;78.70;;;;;;5516876;26;20084;-66
2024/04/20 12:50:31;;;;;;;1.08;0.80;;;13.10;80.50;;;;;;5501003;26;19998;-66
2024/04/20 12:52:57;;;;;;;4.00;0.90;;;13.00;78.00;;;;;;5514472;26;20020;-66